sensor_id;sensor_type;location;lat;lon;timestamp;temperature;humidity
5392;DHT22;2719;53.624;9.786;2023-02-26T00:01:51;2.50;99.90
5392;DHT22;2719;53.624;9.786;2023-02-26T00:04:26;2.40;99.90
5392;DHT22;2719;53.624;9.786;2023-02-26T00:06:54;2.50;99.90
5392;DHT22;2719;53.624;9.786;2023-02-26T00:09:22;2.50;99.90
5392;DHT22;2719;53.624;9.786;2023-02-26T00:11:49;2.60;99.90
5392;DHT22;2719;53.624;9.786;2023-02-26T00:14:16;2.60;99.90
5392;DHT22;2719;53.624;9.786;2023-02-26T00:16:46;2.60;99.90
5392;DHT22;2719;53.624;9.786;2023-02-26T00:19:16;2.60;99.90
5392;DHT22;2719;53.624;9.786;2023-02-26T00:21:43;2.50;99.90
5392;DHT22;2719;53.624;9.786;2023-02-26T00:24:11;2.40;99.90
5392;DHT22;2719;53.624;9.786;2023-02-26T00:26:38;2.30;99.90
5392;DHT22;2719;53.624;9.786;2023-02-26T00:29:05;2.30;99.90
5392;DHT22;2719;53.624;9.786;2023-02-26T00:31:32;2.20;99.90
5392;DHT22;2719;53.624;9.786;2023-02-26T00:33:59;2.30;99.90
5392;DHT22;2719;53.624;9.786;2023-02-26T00:36:35;2.30;99.90
5392;DHT22;2719;53.624;9.786;2023-02-26T00:39:08;2.30;99.90
5392;DHT22;2719;53.624;9.786;2023-02-26T00:41:42;2.20;99.90
5392;DHT22;2719;53.624;9.786;2023-02-26T00:44:09;2.20;99.90
5392;DHT22;2719;53.624;9.786;2023-02-26T00:46:43;2.10;99.90
5392;DHT22;2719;53.624;9.786;2023-02-26T00:49:20;2.00;99.90
5392;DHT22;2719;53.624;9.786;2023-02-26T00:51:51;1.90;99.90
5392;DHT22;2719;53.624;9.786;2023-02-26T00:54:21;1.90;99.90
5392;DHT22;2719;53.624;9.786;2023-02-26T00:56:49;1.90;99.90
5392;DHT22;2719;53.624;9.786;2023-02-26T00:59:17;1.90;99.90
5392;DHT22;2719;53.624;9.786;2023-02-26T01:01:45;1.90;99.90
5392;DHT22;2719;53.624;9.786;2023-02-26T01:04:13;1.90;99.90
5392;DHT22;2719;53.624;9.786;2023-02-26T01:06:43;1.80;99.90
5392;DHT22;2719;53.624;9.786;2023-02-26T01:09:16;1.80;99.90
5392;DHT22;2719;53.624;9.786;2023-02-26T01:11:48;1.80;99.90
5392;DHT22;2719;53.624;9.786;2023-02-26T01:14:16;1.80;99.90
5392;DHT22;2719;53.624;9.786;2023-02-26T01:16:49;1.80;99.90
5392;DHT22;2719;53.624;9.786;2023-02-26T01:19:23;1.90;99.90
5392;DHT22;2719;53.624;9.786;2023-02-26T01:21:58;1.80;99.90
5392;DHT22;2719;53.624;9.786;2023-02-26T01:24:29;2.00;99.90
5392;DHT22;2719;53.624;9.786;2023-02-26T01:26:57;1.90;99.90
5392;DHT22;2719;53.624;9.786;2023-02-26T01:29:24;2.00;99.90
5392;DHT22;2719;53.624;9.786;2023-02-26T01:31:56;2.10;99.90
5392;DHT22;2719;53.624;9.786;2023-02-26T01:34:29;2.10;99.90
5392;DHT22;2719;53.624;9.786;2023-02-26T01:37:06;2.10;99.90
5392;DHT22;2719;53.624;9.786;2023-02-26T01:39:38;2.10;99.90
5392;DHT22;2719;53.624;9.786;2023-02-26T01:42:12;2.10;99.90
5392;DHT22;2719;53.624;9.786;2023-02-26T01:44:48;2.10;99.90
5392;DHT22;2719;53.624;9.786;2023-02-26T01:47:22;2.20;99.90
5392;DHT22;2719;53.624;9.786;2023-02-26T01:49:52;2.20;99.90
5392;DHT22;2719;53.624;9.786;2023-02-26T01:55:24;2.30;99.90
5392;DHT22;2719;53.624;9.786;2023-02-26T01:57:55;2.30;99.90
5392;DHT22;2719;53.624;9.786;2023-02-26T02:00:23;2.40;99.90
5392;DHT22;2719;53.624;9.786;2023-02-26T02:02:50;2.30;99.90
5392;DHT22;2719;53.624;9.786;2023-02-26T02:05:21;2.30;99.90
5392;DHT22;2719;53.624;9.786;2023-02-26T02:07:50;2.30;99.90
5392;DHT22;2719;53.624;9.786;2023-02-26T02:10:17;2.20;99.90
5392;DHT22;2719;53.624;9.786;2023-02-26T02:12:50;2.20;99.90
5392;DHT22;2719;53.624;9.786;2023-02-26T02:15:25;2.10;99.90
5392;DHT22;2719;53.624;9.786;2023-02-26T02:18:00;2.10;99.90
5392;DHT22;2719;53.624;9.786;2023-02-26T02:20:51;2.20;99.90
5392;DHT22;2719;53.624;9.786;2023-02-26T02:23:29;2.30;99.90
5392;DHT22;2719;53.624;9.786;2023-02-26T02:29:19;2.20;99.90
5392;DHT22;2719;53.624;9.786;2023-02-26T02:31:52;2.10;99.90
5392;DHT22;2719;53.624;9.786;2023-02-26T02:34:24;2.20;99.90
5392;DHT22;2719;53.624;9.786;2023-02-26T02:36:55;2.20;99.90
5392;DHT22;2719;53.624;9.786;2023-02-26T02:39:28;2.20;99.90
5392;DHT22;2719;53.624;9.786;2023-02-26T02:42:00;2.10;99.90
5392;DHT22;2719;53.624;9.786;2023-02-26T02:44:29;2.10;99.90
5392;DHT22;2719;53.624;9.786;2023-02-26T02:46:59;2.00;99.90
5392;DHT22;2719;53.624;9.786;2023-02-26T02:49:30;2.10;99.90
5392;DHT22;2719;53.624;9.786;2023-02-26T02:52:00;2.00;99.90
5392;DHT22;2719;53.624;9.786;2023-02-26T02:54:33;2.00;99.90
5392;DHT22;2719;53.624;9.786;2023-02-26T02:57:05;2.00;99.90
5392;DHT22;2719;53.624;9.786;2023-02-26T02:59:40;2.00;99.90
5392;DHT22;2719;53.624;9.786;2023-02-26T03:02:13;2.00;99.90
5392;DHT22;2719;53.624;9.786;2023-02-26T03:04:41;2.00;99.90
5392;DHT22;2719;53.624;9.786;2023-02-26T03:07:09;2.10;99.90
5392;DHT22;2719;53.624;9.786;2023-02-26T03:09:36;2.00;99.90
5392;DHT22;2719;53.624;9.786;2023-02-26T03:12:03;2.00;99.90
5392;DHT22;2719;53.624;9.786;2023-02-26T03:14:31;2.20;99.90
5392;DHT22;2719;53.624;9.786;2023-02-26T03:17:15;2.20;99.90
5392;DHT22;2719;53.624;9.786;2023-02-26T03:19:53;2.20;99.90
5392;DHT22;2719;53.624;9.786;2023-02-26T03:22:30;2.30;99.90
5392;DHT22;2719;53.624;9.786;2023-02-26T03:25:02;2.30;99.90
5392;DHT22;2719;53.624;9.786;2023-02-26T03:27:34;2.30;99.90
5392;DHT22;2719;53.624;9.786;2023-02-26T03:30:05;2.30;99.90
5392;DHT22;2719;53.624;9.786;2023-02-26T03:32:42;2.10;99.90
5392;DHT22;2719;53.624;9.786;2023-02-26T03:35:13;2.20;99.90
5392;DHT22;2719;53.624;9.786;2023-02-26T03:37:43;2.20;99.90
5392;DHT22;2719;53.624;9.786;2023-02-26T03:40:15;2.20;99.90
5392;DHT22;2719;53.624;9.786;2023-02-26T03:42:45;2.20;99.90
5392;DHT22;2719;53.624;9.786;2023-02-26T03:45:15;2.10;99.90
5392;DHT22;2719;53.624;9.786;2023-02-26T03:47:48;2.10;99.90
5392;DHT22;2719;53.624;9.786;2023-02-26T03:50:21;2.10;99.90
5392;DHT22;2719;53.624;9.786;2023-02-26T03:52:50;2.10;99.90
5392;DHT22;2719;53.624;9.786;2023-02-26T03:55:23;2.00;99.90
5392;DHT22;2719;53.624;9.786;2023-02-26T03:57:51;2.00;99.90
5392;DHT22;2719;53.624;9.786;2023-02-26T04:00:19;1.90;99.90
5392;DHT22;2719;53.624;9.786;2023-02-26T04:02:52;1.80;99.90
5392;DHT22;2719;53.624;9.786;2023-02-26T04:05:24;1.90;99.90
5392;DHT22;2719;53.624;9.786;2023-02-26T04:07:51;1.90;99.90
5392;DHT22;2719;53.624;9.786;2023-02-26T04:10:24;1.90;99.90
5392;DHT22;2719;53.624;9.786;2023-02-26T04:12:58;1.90;99.90
5392;DHT22;2719;53.624;9.786;2023-02-26T04:15:24;1.80;99.90
5392;DHT22;2719;53.624;9.786;2023-02-26T04:17:52;1.80;99.90
5392;DHT22;2719;53.624;9.786;2023-02-26T04:20:19;1.90;99.90
5392;DHT22;2719;53.624;9.786;2023-02-26T04:22:46;1.90;99.90
5392;DHT22;2719;53.624;9.786;2023-02-26T04:25:13;1.90;99.90
5392;DHT22;2719;53.624;9.786;2023-02-26T04:27:39;1.90;99.90
5392;DHT22;2719;53.624;9.786;2023-02-26T04:30:07;1.90;99.90
5392;DHT22;2719;53.624;9.786;2023-02-26T04:32:34;2.00;99.90
5392;DHT22;2719;53.624;9.786;2023-02-26T04:35:03;1.90;99.90
5392;DHT22;2719;53.624;9.786;2023-02-26T04:37:30;1.90;99.90
5392;DHT22;2719;53.624;9.786;2023-02-26T04:39:56;1.90;99.90
5392;DHT22;2719;53.624;9.786;2023-02-26T04:42:23;1.90;99.90
5392;DHT22;2719;53.624;9.786;2023-02-26T04:44:50;1.70;99.90
5392;DHT22;2719;53.624;9.786;2023-02-26T04:47:16;1.70;99.90
5392;DHT22;2719;53.624;9.786;2023-02-26T04:49:43;1.70;99.90
5392;DHT22;2719;53.624;9.786;2023-02-26T04:52:11;1.70;99.90
5392;DHT22;2719;53.624;9.786;2023-02-26T04:54:38;1.50;99.90
5392;DHT22;2719;53.624;9.786;2023-02-26T04:57:05;1.50;99.90
5392;DHT22;2719;53.624;9.786;2023-02-26T04:59:32;1.50;99.90
5392;DHT22;2719;53.624;9.786;2023-02-26T05:01:58;1.60;99.90
5392;DHT22;2719;53.624;9.786;2023-02-26T05:04:25;1.60;99.90
5392;DHT22;2719;53.624;9.786;2023-02-26T05:06:52;1.50;99.90
5392;DHT22;2719;53.624;9.786;2023-02-26T05:09:20;1.50;99.90
5392;DHT22;2719;53.624;9.786;2023-02-26T05:11:46;1.50;99.90
5392;DHT22;2719;53.624;9.786;2023-02-26T05:14:14;1.50;99.90
5392;DHT22;2719;53.624;9.786;2023-02-26T05:16:41;1.50;99.90
5392;DHT22;2719;53.624;9.786;2023-02-26T05:19:07;1.50;99.90
5392;DHT22;2719;53.624;9.786;2023-02-26T05:21:34;1.40;99.90
5392;DHT22;2719;53.624;9.786;2023-02-26T05:24:01;1.40;99.90
5392;DHT22;2719;53.624;9.786;2023-02-26T05:26:29;1.30;99.90
5392;DHT22;2719;53.624;9.786;2023-02-26T05:28:56;1.30;99.90
5392;DHT22;2719;53.624;9.786;2023-02-26T05:31:23;1.30;99.90
5392;DHT22;2719;53.624;9.786;2023-02-26T05:33:51;1.30;99.90
5392;DHT22;2719;53.624;9.786;2023-02-26T05:36:17;1.10;99.90
5392;DHT22;2719;53.624;9.786;2023-02-26T05:38:44;1.20;99.90
5392;DHT22;2719;53.624;9.786;2023-02-26T05:41:11;1.20;99.90
5392;DHT22;2719;53.624;9.786;2023-02-26T05:43:39;1.30;99.90
5392;DHT22;2719;53.624;9.786;2023-02-26T05:46:06;1.30;99.90
5392;DHT22;2719;53.624;9.786;2023-02-26T05:48:33;1.20;99.90
5392;DHT22;2719;53.624;9.786;2023-02-26T05:50:59;1.20;99.90
5392;DHT22;2719;53.624;9.786;2023-02-26T05:53:27;1.20;99.90
5392;DHT22;2719;53.624;9.786;2023-02-26T05:55:54;1.30;99.90
5392;DHT22;2719;53.624;9.786;2023-02-26T05:58:20;1.30;99.90
5392;DHT22;2719;53.624;9.786;2023-02-26T06:00:48;1.20;99.90
5392;DHT22;2719;53.624;9.786;2023-02-26T06:03:15;1.30;99.90
5392;DHT22;2719;53.624;9.786;2023-02-26T06:05:41;1.20;99.90
5392;DHT22;2719;53.624;9.786;2023-02-26T06:08:08;1.30;99.90
5392;DHT22;2719;53.624;9.786;2023-02-26T06:10:36;1.20;99.90
5392;DHT22;2719;53.624;9.786;2023-02-26T06:13:03;1.20;99.90
5392;DHT22;2719;53.624;9.786;2023-02-26T06:15:30;1.10;99.90
5392;DHT22;2719;53.624;9.786;2023-02-26T06:17:58;1.20;99.90
5392;DHT22;2719;53.624;9.786;2023-02-26T06:20:24;1.10;99.90
5392;DHT22;2719;53.624;9.786;2023-02-26T06:22:52;1.10;99.90
5392;DHT22;2719;53.624;9.786;2023-02-26T06:25:19;1.20;99.90
5392;DHT22;2719;53.624;9.786;2023-02-26T06:27:45;1.20;99.90
5392;DHT22;2719;53.624;9.786;2023-02-26T06:30:12;1.20;99.90
5392;DHT22;2719;53.624;9.786;2023-02-26T06:32:39;1.10;99.90
5392;DHT22;2719;53.624;9.786;2023-02-26T06:35:08;1.20;99.90
5392;DHT22;2719;53.624;9.786;2023-02-26T06:37:34;1.30;99.90
5392;DHT22;2719;53.624;9.786;2023-02-26T06:40:01;1.20;99.90
5392;DHT22;2719;53.624;9.786;2023-02-26T06:42:28;1.20;99.90
5392;DHT22;2719;53.624;9.786;2023-02-26T06:44:55;1.20;99.90
5392;DHT22;2719;53.624;9.786;2023-02-26T06:47:22;1.20;99.90
5392;DHT22;2719;53.624;9.786;2023-02-26T06:49:49;1.30;99.90
5392;DHT22;2719;53.624;9.786;2023-02-26T06:52:17;1.30;99.90
5392;DHT22;2719;53.624;9.786;2023-02-26T06:54:44;1.30;99.90
5392;DHT22;2719;53.624;9.786;2023-02-26T06:57:10;1.30;99.90
5392;DHT22;2719;53.624;9.786;2023-02-26T06:59:37;1.30;99.90
5392;DHT22;2719;53.624;9.786;2023-02-26T07:02:04;1.30;99.90
5392;DHT22;2719;53.624;9.786;2023-02-26T07:04:30;1.30;99.90
5392;DHT22;2719;53.624;9.786;2023-02-26T07:06:57;1.40;99.90
5392;DHT22;2719;53.624;9.786;2023-02-26T07:09:25;1.40;99.90
5392;DHT22;2719;53.624;9.786;2023-02-26T07:11:51;1.30;99.90
5392;DHT22;2719;53.624;9.786;2023-02-26T07:14:18;1.30;99.90
5392;DHT22;2719;53.624;9.786;2023-02-26T07:16:45;1.40;99.90
5392;DHT22;2719;53.624;9.786;2023-02-26T07:19:12;1.30;99.90
5392;DHT22;2719;53.624;9.786;2023-02-26T07:21:38;1.30;99.90
5392;DHT22;2719;53.624;9.786;2023-02-26T07:24:06;1.30;99.90
5392;DHT22;2719;53.624;9.786;2023-02-26T07:26:34;1.30;99.90
5392;DHT22;2719;53.624;9.786;2023-02-26T07:29:01;1.20;99.90
5392;DHT22;2719;53.624;9.786;2023-02-26T07:31:28;1.30;99.90
5392;DHT22;2719;53.624;9.786;2023-02-26T07:33:54;1.30;99.90
5392;DHT22;2719;53.624;9.786;2023-02-26T07:36:21;1.30;99.90
5392;DHT22;2719;53.624;9.786;2023-02-26T07:38:48;1.40;99.90
5392;DHT22;2719;53.624;9.786;2023-02-26T07:41:14;1.50;99.90
5392;DHT22;2719;53.624;9.786;2023-02-26T07:43:43;1.60;99.90
5392;DHT22;2719;53.624;9.786;2023-02-26T07:46:10;1.60;99.90
5392;DHT22;2719;53.624;9.786;2023-02-26T07:48:36;1.80;99.90
5392;DHT22;2719;53.624;9.786;2023-02-26T07:51:03;1.90;99.90
5392;DHT22;2719;53.624;9.786;2023-02-26T07:53:31;2.00;99.90
5392;DHT22;2719;53.624;9.786;2023-02-26T07:55:58;2.20;99.90
5392;DHT22;2719;53.624;9.786;2023-02-26T07:58:25;2.30;99.90
5392;DHT22;2719;53.624;9.786;2023-02-26T08:00:53;2.30;99.90
5392;DHT22;2719;53.624;9.786;2023-02-26T08:03:20;2.30;99.90
5392;DHT22;2719;53.624;9.786;2023-02-26T08:05:47;2.40;99.90
5392;DHT22;2719;53.624;9.786;2023-02-26T08:08:13;2.50;99.90
5392;DHT22;2719;53.624;9.786;2023-02-26T08:10:41;2.60;99.90
5392;DHT22;2719;53.624;9.786;2023-02-26T08:13:08;2.50;99.90
5392;DHT22;2719;53.624;9.786;2023-02-26T08:15:35;2.50;99.90
5392;DHT22;2719;53.624;9.786;2023-02-26T08:18:03;2.40;99.90
5392;DHT22;2719;53.624;9.786;2023-02-26T08:20:30;2.40;99.90
5392;DHT22;2719;53.624;9.786;2023-02-26T08:22:57;2.50;99.90
5392;DHT22;2719;53.624;9.786;2023-02-26T08:25:23;2.60;99.90
5392;DHT22;2719;53.624;9.786;2023-02-26T08:27:50;2.50;99.90
5392;DHT22;2719;53.624;9.786;2023-02-26T08:30:17;2.50;99.90
5392;DHT22;2719;53.624;9.786;2023-02-26T08:32:44;2.50;99.90
5392;DHT22;2719;53.624;9.786;2023-02-26T08:35:12;2.40;99.90
5392;DHT22;2719;53.624;9.786;2023-02-26T08:37:38;2.50;99.90
5392;DHT22;2719;53.624;9.786;2023-02-26T08:40:06;2.50;99.90
5392;DHT22;2719;53.624;9.786;2023-02-26T08:42:34;2.60;99.90
5392;DHT22;2719;53.624;9.786;2023-02-26T08:45:00;2.60;99.90
5392;DHT22;2719;53.624;9.786;2023-02-26T08:47:27;2.80;99.90
5392;DHT22;2719;53.624;9.786;2023-02-26T08:49:54;2.80;99.90
5392;DHT22;2719;53.624;9.786;2023-02-26T08:52:22;2.90;99.90
5392;DHT22;2719;53.624;9.786;2023-02-26T08:54:49;2.90;99.90
5392;DHT22;2719;53.624;9.786;2023-02-26T08:57:15;3.00;99.90
5392;DHT22;2719;53.624;9.786;2023-02-26T08:59:42;3.00;99.90
5392;DHT22;2719;53.624;9.786;2023-02-26T09:02:10;3.10;99.90
5392;DHT22;2719;53.624;9.786;2023-02-26T09:04:36;3.20;99.90
5392;DHT22;2719;53.624;9.786;2023-02-26T09:07:03;3.40;99.90
5392;DHT22;2719;53.624;9.786;2023-02-26T09:09:31;3.40;99.90
5392;DHT22;2719;53.624;9.786;2023-02-26T09:11:58;3.50;99.90
5392;DHT22;2719;53.624;9.786;2023-02-26T09:14:25;3.50;99.90
5392;DHT22;2719;53.624;9.786;2023-02-26T09:16:51;3.50;99.90
5392;DHT22;2719;53.624;9.786;2023-02-26T09:19:18;3.50;99.90
5392;DHT22;2719;53.624;9.786;2023-02-26T09:21:45;3.60;99.90
5392;DHT22;2719;53.624;9.786;2023-02-26T09:24:12;3.70;99.90
5392;DHT22;2719;53.624;9.786;2023-02-26T09:26:40;3.80;99.90
5392;DHT22;2719;53.624;9.786;2023-02-26T09:29:07;3.80;99.90
5392;DHT22;2719;53.624;9.786;2023-02-26T09:31:33;4.00;99.90
5392;DHT22;2719;53.624;9.786;2023-02-26T09:34:00;4.10;99.90
5392;DHT22;2719;53.624;9.786;2023-02-26T09:36:27;4.10;99.90
5392;DHT22;2719;53.624;9.786;2023-02-26T09:38:55;4.10;99.90
5392;DHT22;2719;53.624;9.786;2023-02-26T09:41:25;4.00;99.90
5392;DHT22;2719;53.624;9.786;2023-02-26T09:44:19;3.90;99.90
5392;DHT22;2719;53.624;9.786;2023-02-26T09:46:53;3.80;99.90
5392;DHT22;2719;53.624;9.786;2023-02-26T09:49:42;3.80;99.90
5392;DHT22;2719;53.624;9.786;2023-02-26T09:52:17;3.90;99.90
5392;DHT22;2719;53.624;9.786;2023-02-26T09:54:47;4.10;99.90
5392;DHT22;2719;53.624;9.786;2023-02-26T09:57:24;4.30;99.90
5392;DHT22;2719;53.624;9.786;2023-02-26T09:59:53;4.50;99.90
5392;DHT22;2719;53.624;9.786;2023-02-26T10:02:24;4.60;99.90
5392;DHT22;2719;53.624;9.786;2023-02-26T10:05:03;4.70;99.90
5392;DHT22;2719;53.624;9.786;2023-02-26T10:07:39;4.70;99.90
5392;DHT22;2719;53.624;9.786;2023-02-26T10:10:15;4.70;99.90
5392;DHT22;2719;53.624;9.786;2023-02-26T10:12:44;4.80;99.90
5392;DHT22;2719;53.624;9.786;2023-02-26T10:15:15;4.80;99.90
5392;DHT22;2719;53.624;9.786;2023-02-26T10:17:53;4.70;99.90
5392;DHT22;2719;53.624;9.786;2023-02-26T10:20:26;4.70;99.90
5392;DHT22;2719;53.624;9.786;2023-02-26T10:23:00;4.80;99.90
5392;DHT22;2719;53.624;9.786;2023-02-26T10:25:32;4.80;99.90
5392;DHT22;2719;53.624;9.786;2023-02-26T10:28:04;4.80;99.90
5392;DHT22;2719;53.624;9.786;2023-02-26T10:30:40;4.90;99.90
5392;DHT22;2719;53.624;9.786;2023-02-26T10:33:15;4.80;99.90
5392;DHT22;2719;53.624;9.786;2023-02-26T10:35:51;4.80;99.90
5392;DHT22;2719;53.624;9.786;2023-02-26T10:38:21;4.70;99.90
5392;DHT22;2719;53.624;9.786;2023-02-26T10:40:50;4.70;99.90
5392;DHT22;2719;53.624;9.786;2023-02-26T10:43:24;4.70;99.90
5392;DHT22;2719;53.624;9.786;2023-02-26T10:46:03;5.00;99.90
5392;DHT22;2719;53.624;9.786;2023-02-26T10:48:44;5.20;99.90
5392;DHT22;2719;53.624;9.786;2023-02-26T10:51:14;5.30;99.90
5392;DHT22;2719;53.624;9.786;2023-02-26T10:53:44;5.60;99.90
5392;DHT22;2719;53.624;9.786;2023-02-26T10:56:14;5.90;99.90
5392;DHT22;2719;53.624;9.786;2023-02-26T10:58:43;6.20;99.90
5392;DHT22;2719;53.624;9.786;2023-02-26T11:01:17;6.30;99.90
5392;DHT22;2719;53.624;9.786;2023-02-26T11:03:46;6.30;99.90
5392;DHT22;2719;53.624;9.786;2023-02-26T11:06:18;6.00;99.90
5392;DHT22;2719;53.624;9.786;2023-02-26T11:08:48;5.90;99.90
5392;DHT22;2719;53.624;9.786;2023-02-26T11:11:34;5.90;99.90
5392;DHT22;2719;53.624;9.786;2023-02-26T11:14:01;6.00;99.90
5392;DHT22;2719;53.624;9.786;2023-02-26T11:16:29;5.90;99.90
5392;DHT22;2719;53.624;9.786;2023-02-26T11:18:59;5.90;99.90
5392;DHT22;2719;53.624;9.786;2023-02-26T11:21:29;6.00;99.90
5392;DHT22;2719;53.624;9.786;2023-02-26T11:23:59;6.00;99.90
5392;DHT22;2719;53.624;9.786;2023-02-26T11:26:31;6.10;99.90
5392;DHT22;2719;53.624;9.786;2023-02-26T11:28:59;6.00;99.90
5392;DHT22;2719;53.624;9.786;2023-02-26T11:31:27;5.70;99.90
5392;DHT22;2719;53.624;9.786;2023-02-26T11:33:59;5.70;99.90
5392;DHT22;2719;53.624;9.786;2023-02-26T11:36:30;5.80;99.90
5392;DHT22;2719;53.624;9.786;2023-02-26T11:39:02;5.80;99.90
5392;DHT22;2719;53.624;9.786;2023-02-26T11:41:35;5.90;99.90
5392;DHT22;2719;53.624;9.786;2023-02-26T11:44:06;6.00;99.90
5392;DHT22;2719;53.624;9.786;2023-02-26T11:46:41;6.00;99.90
5392;DHT22;2719;53.624;9.786;2023-02-26T11:49:11;6.00;99.90
5392;DHT22;2719;53.624;9.786;2023-02-26T11:51:41;6.10;99.90
5392;DHT22;2719;53.624;9.786;2023-02-26T11:54:20;6.00;99.90
5392;DHT22;2719;53.624;9.786;2023-02-26T11:56:47;6.00;99.90
5392;DHT22;2719;53.624;9.786;2023-02-26T11:59:17;6.00;99.90
5392;DHT22;2719;53.624;9.786;2023-02-26T12:01:46;5.90;99.90
5392;DHT22;2719;53.624;9.786;2023-02-26T12:04:18;5.80;99.90
5392;DHT22;2719;53.624;9.786;2023-02-26T12:06:45;5.80;99.90
5392;DHT22;2719;53.624;9.786;2023-02-26T12:09:14;5.70;99.90
5392;DHT22;2719;53.624;9.786;2023-02-26T12:11:55;5.80;99.90
5392;DHT22;2719;53.624;9.786;2023-02-26T12:14:39;5.80;99.90
5392;DHT22;2719;53.624;9.786;2023-02-26T12:17:19;5.60;99.90
5392;DHT22;2719;53.624;9.786;2023-02-26T12:19:53;5.70;99.90
5392;DHT22;2719;53.624;9.786;2023-02-26T12:22:47;5.80;99.90
5392;DHT22;2719;53.624;9.786;2023-02-26T12:25:54;5.80;99.90
5392;DHT22;2719;53.624;9.786;2023-02-26T12:31:33;5.80;99.90
5392;DHT22;2719;53.624;9.786;2023-02-26T12:34:14;5.70;99.90
5392;DHT22;2719;53.624;9.786;2023-02-26T12:37:06;5.50;99.90
5392;DHT22;2719;53.624;9.786;2023-02-26T12:39:46;5.40;99.90
5392;DHT22;2719;53.624;9.786;2023-02-26T12:42:24;5.40;99.90
5392;DHT22;2719;53.624;9.786;2023-02-26T12:45:09;5.30;99.90
5392;DHT22;2719;53.624;9.786;2023-02-26T12:47:45;5.30;99.90
5392;DHT22;2719;53.624;9.786;2023-02-26T12:50:24;5.30;99.90
5392;DHT22;2719;53.624;9.786;2023-02-26T12:53:17;5.40;99.90
5392;DHT22;2719;53.624;9.786;2023-02-26T12:55:57;5.40;99.90
5392;DHT22;2719;53.624;9.786;2023-02-26T12:58:43;5.40;99.90
5392;DHT22;2719;53.624;9.786;2023-02-26T13:01:21;5.50;99.90
5392;DHT22;2719;53.624;9.786;2023-02-26T13:04:15;5.60;99.90
5392;DHT22;2719;53.624;9.786;2023-02-26T13:06:57;6.00;99.90
5392;DHT22;2719;53.624;9.786;2023-02-26T13:09:33;6.00;99.90
5392;DHT22;2719;53.624;9.786;2023-02-26T13:12:17;6.10;99.90
5392;DHT22;2719;53.624;9.786;2023-02-26T13:14:50;6.00;99.90
5392;DHT22;2719;53.624;9.786;2023-02-26T13:17:25;6.00;99.90
5392;DHT22;2719;53.624;9.786;2023-02-26T13:19:55;5.90;99.90
5392;DHT22;2719;53.624;9.786;2023-02-26T13:22:26;6.00;99.90
5392;DHT22;2719;53.624;9.786;2023-02-26T13:24:57;5.90;99.90
5392;DHT22;2719;53.624;9.786;2023-02-26T13:27:30;5.90;99.90
5392;DHT22;2719;53.624;9.786;2023-02-26T13:30:08;5.80;99.90
5392;DHT22;2719;53.624;9.786;2023-02-26T13:32:36;5.80;99.90
5392;DHT22;2719;53.624;9.786;2023-02-26T13:35:19;5.80;99.90
5392;DHT22;2719;53.624;9.786;2023-02-26T13:37:49;5.70;99.90
5392;DHT22;2719;53.624;9.786;2023-02-26T13:43:32;5.60;99.90
5392;DHT22;2719;53.624;9.786;2023-02-26T13:46:13;5.70;99.90
5392;DHT22;2719;53.624;9.786;2023-02-26T13:48:47;5.60;99.90
5392;DHT22;2719;53.624;9.786;2023-02-26T13:51:26;5.60;99.90
5392;DHT22;2719;53.624;9.786;2023-02-26T13:53:58;5.50;99.90
5392;DHT22;2719;53.624;9.786;2023-02-26T13:56:52;5.50;99.90
5392;DHT22;2719;53.624;9.786;2023-02-26T13:59:35;5.50;99.90
5392;DHT22;2719;53.624;9.786;2023-02-26T14:08:43;6.60;99.90
5392;DHT22;2719;53.624;9.786;2023-02-26T14:14:15;6.70;99.90
5392;DHT22;2719;53.624;9.786;2023-02-26T14:16:43;6.70;99.90
5392;DHT22;2719;53.624;9.786;2023-02-26T14:19:26;6.50;99.90
5392;DHT22;2719;53.624;9.786;2023-02-26T14:21:54;6.30;99.90
5392;DHT22;2719;53.624;9.786;2023-02-26T14:24:29;6.20;99.90
5392;DHT22;2719;53.624;9.786;2023-02-26T14:27:20;6.10;99.90
5392;DHT22;2719;53.624;9.786;2023-02-26T14:29:59;6.10;99.90
5392;DHT22;2719;53.624;9.786;2023-02-26T14:32:29;6.00;99.90
5392;DHT22;2719;53.624;9.786;2023-02-26T14:34:59;6.00;99.90
5392;DHT22;2719;53.624;9.786;2023-02-26T14:37:29;6.00;99.90
5392;DHT22;2719;53.624;9.786;2023-02-26T14:40:02;6.30;99.90
5392;DHT22;2719;53.624;9.786;2023-02-26T14:42:36;6.50;99.90
5392;DHT22;2719;53.624;9.786;2023-02-26T14:45:26;6.80;99.90
5392;DHT22;2719;53.624;9.786;2023-02-26T14:47:55;7.10;99.90
5392;DHT22;2719;53.624;9.786;2023-02-26T14:50:23;7.20;99.90
5392;DHT22;2719;53.624;9.786;2023-02-26T14:55:47;7.40;99.90
5392;DHT22;2719;53.624;9.786;2023-02-26T14:58:37;7.40;99.80
5392;DHT22;2719;53.624;9.786;2023-02-26T15:01:17;7.30;99.30
5392;DHT22;2719;53.624;9.786;2023-02-26T15:06:57;7.30;99.10
5392;DHT22;2719;53.624;9.786;2023-02-26T15:09:33;6.90;99.30
5392;DHT22;2719;53.624;9.786;2023-02-26T15:12:20;6.60;99.70
5392;DHT22;2719;53.624;9.786;2023-02-26T15:15:12;6.60;99.50
5392;DHT22;2719;53.624;9.786;2023-02-26T15:17:57;6.60;99.90
5392;DHT22;2719;53.624;9.786;2023-02-26T15:20:32;6.50;99.90
5392;DHT22;2719;53.624;9.786;2023-02-26T15:23:24;6.40;99.90
5392;DHT22;2719;53.624;9.786;2023-02-26T15:25:54;6.40;99.70
5392;DHT22;2719;53.624;9.786;2023-02-26T15:28:25;6.30;99.90
5392;DHT22;2719;53.624;9.786;2023-02-26T15:30:53;6.30;99.90
5392;DHT22;2719;53.624;9.786;2023-02-26T15:33:24;6.30;99.50
5392;DHT22;2719;53.624;9.786;2023-02-26T15:35:52;6.40;98.90
5392;DHT22;2719;53.624;9.786;2023-02-26T15:38:19;6.30;99.30
5392;DHT22;2719;53.624;9.786;2023-02-26T15:40:48;6.20;98.50
5392;DHT22;2719;53.624;9.786;2023-02-26T15:43:20;6.10;98.10
5392;DHT22;2719;53.624;9.786;2023-02-26T15:45:48;6.20;98.50
5392;DHT22;2719;53.624;9.786;2023-02-26T15:48:19;6.30;98.70
5392;DHT22;2719;53.624;9.786;2023-02-26T15:50:52;6.50;99.10
5392;DHT22;2719;53.624;9.786;2023-02-26T15:53:25;6.50;98.60
5392;DHT22;2719;53.624;9.786;2023-02-26T15:55:55;6.40;97.50
5392;DHT22;2719;53.624;9.786;2023-02-26T15:58:33;6.30;97.30
5392;DHT22;2719;53.624;9.786;2023-02-26T16:01:02;6.30;97.40
5392;DHT22;2719;53.624;9.786;2023-02-26T16:03:31;6.30;97.50
5392;DHT22;2719;53.624;9.786;2023-02-26T16:06:00;6.20;97.30
5392;DHT22;2719;53.624;9.786;2023-02-26T16:08:27;6.20;98.50
5392;DHT22;2719;53.624;9.786;2023-02-26T16:10:55;6.10;98.00
5392;DHT22;2719;53.624;9.786;2023-02-26T16:13:27;6.10;98.30
5392;DHT22;2719;53.624;9.786;2023-02-26T16:15:58;6.10;99.30
5392;DHT22;2719;53.624;9.786;2023-02-26T16:18:25;6.10;99.40
5392;DHT22;2719;53.624;9.786;2023-02-26T16:20:54;6.10;99.20
5392;DHT22;2719;53.624;9.786;2023-02-26T16:23:27;6.00;99.50
5392;DHT22;2719;53.624;9.786;2023-02-26T16:25:58;6.00;99.50
5392;DHT22;2719;53.624;9.786;2023-02-26T16:28:30;5.90;99.50
5392;DHT22;2719;53.624;9.786;2023-02-26T16:30:59;5.80;99.60
5392;DHT22;2719;53.624;9.786;2023-02-26T16:33:32;5.70;99.50
5392;DHT22;2719;53.624;9.786;2023-02-26T16:36:03;5.60;99.70
5392;DHT22;2719;53.624;9.786;2023-02-26T16:38:41;5.70;99.90
5392;DHT22;2719;53.624;9.786;2023-02-26T16:41:10;5.60;99.90
5392;DHT22;2719;53.624;9.786;2023-02-26T16:43:50;5.40;99.90
5392;DHT22;2719;53.624;9.786;2023-02-26T16:46:19;5.40;99.90
5392;DHT22;2719;53.624;9.786;2023-02-26T16:48:51;5.40;99.90
5392;DHT22;2719;53.624;9.786;2023-02-26T16:51:21;5.40;99.90
5392;DHT22;2719;53.624;9.786;2023-02-26T16:53:52;5.40;99.90
5392;DHT22;2719;53.624;9.786;2023-02-26T16:56:25;5.40;99.90
5392;DHT22;2719;53.624;9.786;2023-02-26T16:58:56;5.30;99.90
5392;DHT22;2719;53.624;9.786;2023-02-26T17:01:27;5.30;99.90
5392;DHT22;2719;53.624;9.786;2023-02-26T17:03:59;5.20;99.90
5392;DHT22;2719;53.624;9.786;2023-02-26T17:06:27;5.10;99.90
5392;DHT22;2719;53.624;9.786;2023-02-26T17:08:59;5.10;99.90
5392;DHT22;2719;53.624;9.786;2023-02-26T17:11:28;5.10;99.90